Time;durP1;ratioP1;P1;durP2;ratioP2;P2;SDS_P1;SDS_P2;PMS_P1;PMS_P2;Temp;Humidity;BMP_temperature;BMP_pressure;BME280_temperature;BME280_humidity;BME280_pressure;Samples;Min_cycle;Max_cycle;Signal;HPM_P1;HPM_P2
2023/01/02 00:00:10;;;;;;;9.05;4.00;;;;;;;;;;5070684;28;20074;-78
2023/01/02 00:02:35;;;;;;;9.95;4.10;;;;;;;;;;5066406;28;20032;-78
2023/01/02 00:05:01;;;;;;;8.07;4.03;;;;;;;;;;5059619;28;20039;-77
2023/01/02 00:07:26;;;;;;;9.15;3.58;;;;;;;;;;5056801;28;20085;-77
2023/01/02 00:09:51;;;;;;;8.45;3.50;;;;;;;;;;5077671;28;20021;-77
2023/01/02 00:12:17;;;;;;;7.03;3.40;;;;;;;;;;5062992;28;20081;-77
2023/01/02 00:14:42;;;;;;;10.57;3.47;;;;;;;;;;5056623;28;20056;-78
2023/01/02 00:17:07;;;;;;;5.47;3.20;;;;;;;;;;5061737;28;20036;-78
2023/01/02 00:19:33;;;;;;;6.30;3.50;;;;;;;;;;5066264;28;20032;-78
2023/01/02 00:21:58;;;;;;;6.43;3.72;;;;;;;;;;5065166;28;20486;-77
2023/01/02 00:24:23;;;;;;;7.63;3.70;;;;;;;;;;5060937;28;20040;-77
2023/01/02 00:26:49;;;;;;;9.55;3.38;;;;;;;;;;5066211;28;20028;-77
2023/01/02 00:29:14;;;;;;;8.18;3.17;;;;;;;;;;5057243;28;20676;-77
2023/01/02 00:31:40;;;;;;;7.60;3.35;;;;;;;;;;5059554;28;20047;-78
2023/01/02 00:34:05;;;;;;;8.32;3.47;;;;;;;;;;5060150;28;20089;-77
2023/01/02 00:36:30;;;;;;;10.98;3.90;;;;;;;;;;5055398;28;20500;-77
2023/01/02 00:38:56;;;;;;;5.88;3.15;;;;;;;;;;5062964;28;20048;-78
2023/01/02 00:41:22;;;;;;;8.25;3.28;;;;;;;;;;5069961;28;20028;-77
2023/01/02 00:43:48;;;;;;;6.25;3.33;;;;;;;;;;5062803;28;20055;-77
2023/01/02 00:46:14;;;;;;;7.68;3.35;;;;;;;;;;5068497;28;20465;-77
2023/01/02 00:48:40;;;;;;;8.55;3.50;;;;;;;;;;5064390;28;20511;-78
2023/01/02 00:51:06;;;;;;;7.40;3.45;;;;;;;;;;5061601;28;20021;-77
2023/01/02 00:53:31;;;;;;;7.97;3.47;;;;;;;;;;5070207;28;20031;-78
2023/01/02 00:55:56;;;;;;;8.20;3.22;;;;;;;;;;5067652;28;20081;-77
2023/01/02 00:58:22;;;;;;;6.70;3.03;;;;;;;;;;5063043;28;20078;-78
2023/01/02 01:00:49;;;;;;;10.43;3.70;;;;;;;;;;5066815;28;20024;-78
2023/01/02 01:03:14;;;;;;;6.35;3.30;;;;;;;;;;5064530;28;20031;-78
2023/01/02 01:05:40;;;;;;;8.65;3.28;;;;;;;;;;5064768;28;20024;-77
2023/01/02 01:08:05;;;;;;;7.55;3.30;;;;;;;;;;5067896;28;20025;-77
2023/01/02 01:10:31;;;;;;;8.70;3.40;;;;;;;;;;5066630;28;20469;-77
2023/01/02 01:12:56;;;;;;;10.82;3.42;;;;;;;;;;5064159;28;20043;-78
2023/01/02 01:15:21;;;;;;;8.45;3.17;;;;;;;;;;5066943;28;20028;-78
2023/01/02 01:17:47;;;;;;;5.85;2.88;;;;;;;;;;5063658;28;20579;-77
2023/01/02 01:20:13;;;;;;;8.35;3.05;;;;;;;;;;5063757;28;20404;-77
2023/01/02 01:22:38;;;;;;;14.10;3.67;;;;;;;;;;5062886;28;20024;-77
2023/01/02 01:25:04;;;;;;;5.90;3.15;;;;;;;;;;5067748;28;20017;-77
2023/01/02 01:27:29;;;;;;;7.00;3.58;;;;;;;;;;5064689;28;20029;-78
2023/01/02 01:29:54;;;;;;;11.13;3.40;;;;;;;;;;5069863;28;20048;-78
2023/01/02 01:32:20;;;;;;;9.57;3.45;;;;;;;;;;5064423;28;20032;-77
2023/01/02 01:34:45;;;;;;;8.82;3.50;;;;;;;;;;5064484;28;20518;-77
2023/01/02 01:37:11;;;;;;;8.13;3.78;;;;;;;;;;5068741;28;20455;-77
2023/01/02 01:39:36;;;;;;;8.57;3.92;;;;;;;;;;5075472;28;20078;-77
2023/01/02 01:42:02;;;;;;;10.82;3.65;;;;;;;;;;5072908;28;20116;-77
2023/01/02 01:44:54;;;;;;;9.18;3.10;;;;;;;;;;5071338;28;20365;-77
2023/01/02 01:47:24;;;;;;;8.85;3.00;;;;;;;;;;5067171;28;20024;-77
2023/01/02 01:50:01;;;;;;;6.68;3.40;;;;;;;;;;5066047;28;20098;-77
2023/01/02 01:52:28;;;;;;;9.25;3.50;;;;;;;;;;5063966;28;20039;-77
2023/01/02 01:55:14;;;;;;;4.93;2.80;;;;;;;;;;5066942;28;21025;-78
2023/01/02 01:57:56;;;;;;;5.93;2.95;;;;;;;;;;5067205;28;20505;-77
2023/01/02 02:00:22;;;;;;;6.95;2.70;;;;;;;;;;5064164;28;20031;-77
2023/01/02 02:02:50;;;;;;;7.10;2.97;;;;;;;;;;5064524;28;20481;-77
2023/01/02 02:05:19;;;;;;;6.80;2.80;;;;;;;;;;5062920;28;20432;-77
2023/01/02 02:08:01;;;;;;;6.75;2.75;;;;;;;;;;5062646;28;20480;-78
2023/01/02 02:10:26;;;;;;;7.85;3.20;;;;;;;;;;5064978;28;21299;-77
2023/01/02 02:12:52;;;;;;;8.23;3.10;;;;;;;;;;5059452;28;20051;-77
2023/01/02 02:15:24;;;;;;;8.45;2.92;;;;;;;;;;5057251;28;20024;-78
2023/01/02 02:17:50;;;;;;;6.32;2.60;;;;;;;;;;5060365;28;20396;-77
2023/01/02 02:20:44;;;;;;;6.10;2.28;;;;;;;;;;5064221;28;20029;-77
2023/01/02 02:23:13;;;;;;;9.30;2.70;;;;;;;;;;5068952;28;20028;-77
2023/01/02 02:25:52;;;;;;;6.68;2.80;;;;;;;;;;5062054;28;20036;-77
2023/01/02 02:29:02;;;;;;;6.38;2.90;;;;;;;;;;5061513;28;20499;-77
2023/01/02 02:31:39;;;;;;;5.55;2.65;;;;;;;;;;5058680;28;20029;-77
2023/01/02 02:34:10;;;;;;;5.75;2.42;;;;;;;;;;5067613;28;20105;-78
2023/01/02 02:36:52;;;;;;;7.35;2.70;;;;;;;;;;5061398;28;20064;-78
2023/01/02 02:39:30;;;;;;;8.38;2.65;;;;;;;;;;5062659;28;20020;-77
2023/01/02 02:42:21;;;;;;;5.60;2.38;;;;;;;;;;5060593;28;20476;-77
2023/01/02 02:45:05;;;;;;;5.30;2.38;;;;;;;;;;5053799;28;20032;-77
2023/01/02 02:47:48;;;;;;;8.73;2.72;;;;;;;;;;5066502;28;20032;-77
2023/01/02 02:50:32;;;;;;;7.10;2.38;;;;;;;;;;5068705;28;20051;-77
2023/01/02 02:53:05;;;;;;;7.60;2.97;;;;;;;;;;5064978;28;20029;-77
2023/01/02 02:55:46;;;;;;;6.70;2.65;;;;;;;;;;5067830;28;20234;-77
2023/01/02 02:58:13;;;;;;;6.00;2.63;;;;;;;;;;5062451;28;20035;-77
2023/01/02 03:00:38;;;;;;;7.68;2.80;;;;;;;;;;5065202;28;20504;-77
2023/01/02 03:03:18;;;;;;;7.55;2.72;;;;;;;;;;5068267;28;20032;-78
2023/01/02 03:06:06;;;;;;;7.32;2.67;;;;;;;;;;5067072;28;20028;-77
2023/01/02 03:09:12;;;;;;;5.68;2.35;;;;;;;;;;5064370;28;20082;-78
2023/01/02 03:11:56;;;;;;;7.65;2.92;;;;;;;;;;5061280;28;20119;-77
2023/01/02 03:14:36;;;;;;;6.18;2.60;;;;;;;;;;5063654;28;20499;-77
2023/01/02 03:17:06;;;;;;;5.55;2.35;;;;;;;;;;5061508;28;20463;-77
2023/01/02 03:19:40;;;;;;;6.95;2.53;;;;;;;;;;5066918;28;20361;-77
2023/01/02 03:22:17;;;;;;;7.18;2.35;;;;;;;;;;5063335;28;20029;-78
2023/01/02 03:24:45;;;;;;;7.15;2.72;;;;;;;;;;5059991;28;20097;-78
2023/01/02 03:27:16;;;;;;;6.28;2.97;;;;;;;;;;5063321;28;20028;-77
2023/01/02 03:29:47;;;;;;;4.82;2.78;;;;;;;;;;5066988;28;20119;-78
2023/01/02 03:32:21;;;;;;;7.85;2.97;;;;;;;;;;5061387;28;20380;-77
2023/01/02 03:34:48;;;;;;;5.63;2.47;;;;;;;;;;5076373;28;20473;-77
2023/01/02 03:37:20;;;;;;;6.90;2.50;;;;;;;;;;5062155;28;20038;-77
2023/01/02 03:39:52;;;;;;;6.43;2.33;;;;;;;;;;5066842;28;20028;-77
2023/01/02 03:42:33;;;;;;;5.93;2.70;;;;;;;;;;5066301;28;20036;-77
2023/01/02 03:45:07;;;;;;;5.35;2.63;;;;;;;;;;5065062;28;20026;-78
2023/01/02 03:47:54;;;;;;;5.28;2.33;;;;;;;;;;5060298;28;20569;-77
2023/01/02 03:50:28;;;;;;;8.25;2.30;;;;;;;;;;5068783;28;20385;-77
2023/01/02 03:52:54;;;;;;;6.43;2.60;;;;;;;;;;5062938;28;20039;-77
2023/01/02 03:55:22;;;;;;;6.32;2.35;;;;;;;;;;5059848;28;20044;-77
2023/01/02 03:58:03;;;;;;;4.97;2.28;;;;;;;;;;5058546;28;20057;-78
2023/01/02 04:00:35;;;;;;;4.93;2.10;;;;;;;;;;5057472;28;20574;-77
2023/01/02 04:03:19;;;;;;;5.68;2.60;;;;;;;;;;5062934;28;20404;-78
2023/01/02 04:05:50;;;;;;;5.70;2.40;;;;;;;;;;5062505;28;20280;-77
2023/01/02 04:08:33;;;;;;;5.88;2.40;;;;;;;;;;5061483;28;20020;-77
2023/01/02 04:11:01;;;;;;;5.30;2.20;;;;;;;;;;5058755;28;20439;-77
2023/01/02 04:13:41;;;;;;;5.20;2.42;;;;;;;;;;5062299;28;20123;-77
2023/01/02 04:16:09;;;;;;;5.65;2.53;;;;;;;;;;5059298;28;20361;-77
2023/01/02 04:18:39;;;;;;;6.63;2.20;;;;;;;;;;5057181;28;20032;-77
2023/01/02 04:21:14;;;;;;;6.35;2.60;;;;;;;;;;5062517;28;20489;-77
2023/01/02 04:23:44;;;;;;;4.22;2.20;;;;;;;;;;5073665;28;20033;-77
2023/01/02 04:26:19;;;;;;;7.07;2.50;;;;;;;;;;5059706;28;20032;-77
2023/01/02 04:28:45;;;;;;;8.23;2.67;;;;;;;;;;5060250;28;20033;-77
2023/01/02 04:31:19;;;;;;;4.93;2.33;;;;;;;;;;5060081;28;20020;-77
2023/01/02 04:33:49;;;;;;;6.25;2.60;;;;;;;;;;5063014;28;20032;-77
2023/01/02 04:36:15;;;;;;;4.47;2.33;;;;;;;;;;5067039;28;20040;-78
2023/01/02 04:38:42;;;;;;;5.93;2.40;;;;;;;;;;5061702;28;20058;-77
2023/01/02 04:41:11;;;;;;;5.22;2.50;;;;;;;;;;5058977;28;20064;-77
2023/01/02 04:43:36;;;;;;;6.60;2.70;;;;;;;;;;5063794;28;20110;-78
2023/01/02 04:46:02;;;;;;;8.18;2.40;;;;;;;;;;5057338;28;20436;-78
2023/01/02 04:48:27;;;;;;;6.30;2.60;;;;;;;;;;5061621;28;20034;-78
2023/01/02 04:50:54;;;;;;;6.22;2.60;;;;;;;;;;5058142;28;20469;-77
2023/01/02 04:53:20;;;;;;;6.78;2.25;;;;;;;;;;5058946;28;20127;-77
2023/01/02 04:55:45;;;;;;;6.95;2.78;;;;;;;;;;5061823;28;20036;-78
2023/01/02 04:58:10;;;;;;;4.53;2.60;;;;;;;;;;5057014;28;20020;-77
2023/01/02 05:00:36;;;;;;;6.50;3.13;;;;;;;;;;5052409;28;20035;-77
2023/01/02 05:03:02;;;;;;;5.90;2.15;;;;;;;;;;5057807;28;20511;-77
2023/01/02 05:05:28;;;;;;;6.88;2.47;;;;;;;;;;5068584;28;20034;-77
2023/01/02 05:07:53;;;;;;;5.10;2.53;;;;;;;;;;5064460;28;20107;-77
2023/01/02 05:10:19;;;;;;;7.00;2.58;;;;;;;;;;5067216;28;20062;-77
2023/01/02 05:12:45;;;;;;;4.85;2.35;;;;;;;;;;5070373;28;20021;-77
2023/01/02 05:15:11;;;;;;;4.25;2.50;;;;;;;;;;5073319;28;20111;-77
2023/01/02 05:17:38;;;;;;;6.10;2.67;;;;;;;;;;5066768;28;20044;-78
2023/01/02 05:20:05;;;;;;;6.95;2.88;;;;;;;;;;5062552;28;20090;-77
2023/01/02 05:25:15;;;;;;;4.00;2.20;;;;;;;;;;5071300;28;20079;-77
2023/01/02 05:27:40;;;;;;;6.82;2.50;;;;;;;;;;5068748;28;20048;-78
2023/01/02 05:30:07;;;;;;;8.23;2.70;;;;;;;;;;5071130;28;20544;-78
2023/01/02 05:32:32;;;;;;;6.47;2.70;;;;;;;;;;5070333;28;20773;-77
2023/01/02 05:34:57;;;;;;;5.88;2.80;;;;;;;;;;5067829;28;20063;-77
2023/01/02 05:37:23;;;;;;;6.20;2.70;;;;;;;;;;5063105;28;20461;-77
2023/01/02 05:39:48;;;;;;;7.35;2.70;;;;;;;;;;5082761;28;20060;-77
2023/01/02 05:42:14;;;;;;;5.53;2.33;;;;;;;;;;5059676;28;20082;-78
2023/01/02 05:44:39;;;;;;;4.13;2.17;;;;;;;;;;5058106;28;20469;-77
2023/01/02 05:47:04;;;;;;;4.47;2.30;;;;;;;;;;5060010;28;20459;-77
2023/01/02 05:49:30;;;;;;;5.53;2.40;;;;;;;;;;5059228;28;20421;-77
2023/01/02 05:51:55;;;;;;;7.78;2.25;;;;;;;;;;5073847;28;20032;-78
2023/01/02 05:54:20;;;;;;;5.18;2.55;;;;;;;;;;5054052;28;20120;-77
2023/01/02 05:56:46;;;;;;;5.22;2.30;;;;;;;;;;5059005;28;20059;-77
2023/01/02 05:59:14;;;;;;;5.25;2.33;;;;;;;;;;5060743;28;20032;-77
2023/01/02 06:01:40;;;;;;;6.00;2.60;;;;;;;;;;5057836;28;20024;-77
2023/01/02 06:04:05;;;;;;;6.05;2.17;;;;;;;;;;5056377;28;20024;-77
2023/01/02 06:06:33;;;;;;;6.55;2.67;;;;;;;;;;5061650;28;20029;-77
2023/01/02 06:09:00;;;;;;;6.00;2.15;;;;;;;;;;5064002;28;20499;-77
2023/01/02 06:11:26;;;;;;;5.18;2.30;;;;;;;;;;5069035;28;20021;-77
2023/01/02 06:13:53;;;;;;;6.72;3.05;;;;;;;;;;5060410;28;20451;-77
2023/01/02 06:16:18;;;;;;;6.32;2.50;;;;;;;;;;5058983;28;20070;-77
2023/01/02 06:18:43;;;;;;;4.20;2.25;;;;;;;;;;5064032;28;20431;-77
2023/01/02 06:21:12;;;;;;;7.10;2.63;;;;;;;;;;5061618;28;20032;-76
2023/01/02 06:23:38;;;;;;;4.80;1.50;;;;;;;;;;5061521;28;20515;-77
2023/01/02 06:26:06;;;;;;;2.63;1.40;;;;;;;;;;5063742;28;20037;-76
2023/01/02 06:28:31;;;;;;;3.03;1.65;;;;;;;;;;5057379;28;20024;-77
2023/01/02 06:31:08;;;;;;;3.88;2.20;;;;;;;;;;5062941;28;20021;-77
2023/01/02 06:33:33;;;;;;;5.70;2.95;;;;;;;;;;5068003;28;20039;-77
2023/01/02 06:36:06;;;;;;;3.30;2.55;;;;;;;;;;5068328;28;20079;-77
2023/01/02 06:38:32;;;;;;;2.63;1.63;;;;;;;;;;5064967;28;20035;-76
2023/01/02 06:40:59;;;;;;;2.50;1.65;;;;;;;;;;5059390;28;20183;-77
2023/01/02 06:43:25;;;;;;;2.90;1.60;;;;;;;;;;5063241;28;20033;-77
2023/01/02 06:45:51;;;;;;;2.60;1.50;;;;;;;;;;5063615;28;20025;-77
2023/01/02 06:48:17;;;;;;;1.88;1.42;;;;;;;;;;5067717;28;20043;-77
2023/01/02 06:50:43;;;;;;;4.82;1.70;;;;;;;;;;5065173;28;20563;-77
2023/01/02 06:53:09;;;;;;;2.17;1.40;;;;;;;;;;5063723;28;20519;-79
2023/01/02 06:55:34;;;;;;;2.55;1.75;;;;;;;;;;5063279;28;20055;-77
2023/01/02 06:57:59;;;;;;;2.80;1.95;;;;;;;;;;5067273;28;20118;-77
2023/01/02 07:00:25;;;;;;;2.92;2.03;;;;;;;;;;5067482;28;20029;-77
2023/01/02 07:02:50;;;;;;;3.33;2.38;;;;;;;;;;5065643;28;20412;-77
2023/01/02 07:05:16;;;;;;;3.83;2.47;;;;;;;;;;5060365;28;20067;-77
2023/01/02 07:07:41;;;;;;;3.97;2.65;;;;;;;;;;5070817;28;20111;-77
2023/01/02 07:10:07;;;;;;;4.80;3.13;;;;;;;;;;5065251;28;20031;-77
2023/01/02 07:12:36;;;;;;;5.32;2.80;;;;;;;;;;5064012;28;20485;-77
2023/01/02 07:15:03;;;;;;;3.55;2.40;;;;;;;;;;5063514;28;20052;-77
2023/01/02 07:17:30;;;;;;;3.33;2.08;;;;;;;;;;5064654;28;20032;-77
2023/01/02 07:19:55;;;;;;;3.35;2.13;;;;;;;;;;5068471;28;20025;-76
2023/01/02 07:22:21;;;;;;;2.78;1.83;;;;;;;;;;5064390;28;20043;-77
2023/01/02 07:24:46;;;;;;;3.15;1.67;;;;;;;;;;5070312;28;20029;-77
2023/01/02 07:27:11;;;;;;;2.70;1.48;;;;;;;;;;5067154;28;20024;-77
2023/01/02 07:29:37;;;;;;;3.38;1.48;;;;;;;;;;5070751;28;20041;-77
2023/01/02 07:32:02;;;;;;;2.15;1.52;;;;;;;;;;5060940;28;20040;-77
2023/01/02 07:34:28;;;;;;;2.80;1.50;;;;;;;;;;5067263;28;20103;-77
2023/01/02 07:36:53;;;;;;;2.25;1.55;;;;;;;;;;5069770;28;20442;-77
2023/01/02 07:39:19;;;;;;;2.97;1.90;;;;;;;;;;5066105;28;20468;-77
2023/01/02 07:41:44;;;;;;;2.80;1.80;;;;;;;;;;5064559;28;20079;-77
2023/01/02 07:44:09;;;;;;;2.70;1.65;;;;;;;;;;5067503;28;20091;-77
2023/01/02 07:46:35;;;;;;;3.20;1.98;;;;;;;;;;5064488;28;20024;-77
2023/01/02 07:49:00;;;;;;;4.45;2.60;;;;;;;;;;5065218;28;20024;-77
2023/01/02 07:51:25;;;;;;;4.95;2.78;;;;;;;;;;5061145;28;20028;-77
2023/01/02 07:53:51;;;;;;;3.35;2.13;;;;;;;;;;5062278;28;20037;-76
2023/01/02 07:56:16;;;;;;;3.25;1.95;;;;;;;;;;5067038;28;20025;-77
2023/01/02 07:58:41;;;;;;;3.97;2.17;;;;;;;;;;5065269;28;20032;-78
2023/01/02 08:01:11;;;;;;;3.90;1.85;;;;;;;;;;5070148;28;20036;-77
2023/01/02 08:03:37;;;;;;;4.32;2.03;;;;;;;;;;5064205;28;20493;-77
2023/01/02 08:06:11;;;;;;;3.75;2.15;;;;;;;;;;5063616;28;20107;-77
2023/01/02 08:08:37;;;;;;;4.50;2.05;;;;;;;;;;5069965;28;20028;-77
2023/01/02 08:11:10;;;;;;;3.35;1.80;;;;;;;;;;5069319;28;20485;-77
2023/01/02 08:13:36;;;;;;;3.53;1.98;;;;;;;;;;5066937;28;20036;-77
2023/01/02 08:16:07;;;;;;;3.55;1.80;;;;;;;;;;5067493;28;20024;-77
2023/01/02 08:18:32;;;;;;;3.85;1.95;;;;;;;;;;5064947;28;20028;-77
2023/01/02 08:20:58;;;;;;;4.20;2.20;;;;;;;;;;5067041;28;20017;-77
2023/01/02 08:23:23;;;;;;;4.15;2.10;;;;;;;;;;5069227;28;20119;-77
2023/01/02 08:25:48;;;;;;;4.80;2.50;;;;;;;;;;5062961;28;20396;-77
2023/01/02 08:28:14;;;;;;;3.47;1.83;;;;;;;;;;5061371;28;20056;-77
2023/01/02 08:30:40;;;;;;;5.57;2.08;;;;;;;;;;5067563;28;20060;-77
2023/01/02 08:33:05;;;;;;;4.13;2.08;;;;;;;;;;5069144;28;20032;-77
2023/01/02 08:35:31;;;;;;;6.97;2.08;;;;;;;;;;5071296;28;20064;-77
2023/01/02 08:37:56;;;;;;;3.97;1.80;;;;;;;;;;5064229;28;20036;-77
2023/01/02 08:40:22;;;;;;;3.88;2.05;;;;;;;;;;5064527;28;20388;-77
2023/01/02 08:42:47;;;;;;;3.70;2.03;;;;;;;;;;5071585;28;20031;-77
2023/01/02 08:45:12;;;;;;;4.15;2.10;;;;;;;;;;5060064;28;20060;-77
2023/01/02 08:47:38;;;;;;;4.47;2.30;;;;;;;;;;5066233;28;20028;-77
2023/01/02 08:50:04;;;;;;;3.95;2.10;;;;;;;;;;5070663;28;20388;-77
2023/01/02 08:52:29;;;;;;;4.65;2.58;;;;;;;;;;5060387;28;20094;-77
2023/01/02 08:54:54;;;;;;;5.00;2.50;;;;;;;;;;5062326;28;20467;-77
2023/01/02 08:57:20;;;;;;;4.00;2.50;;;;;;;;;;5066892;28;20025;-77
2023/01/02 08:59:45;;;;;;;5.72;2.90;;;;;;;;;;5065527;28;20496;-77
2023/01/02 09:02:14;;;;;;;4.93;2.75;;;;;;;;;;5062985;28;20397;-77
2023/01/02 09:04:40;;;;;;;6.15;2.97;;;;;;;;;;5064954;28;20025;-77
2023/01/02 09:07:05;;;;;;;4.32;2.40;;;;;;;;;;5057838;28;21272;-77
2023/01/02 09:09:30;;;;;;;4.10;2.30;;;;;;;;;;5060914;28;21122;-77
2023/01/02 09:11:57;;;;;;;4.45;2.60;;;;;;;;;;5066231;28;20283;-77
2023/01/02 09:14:22;;;;;;;4.43;2.50;;;;;;;;;;5059923;28;20024;-77
2023/01/02 09:16:49;;;;;;;4.93;2.47;;;;;;;;;;5066993;28;20034;-77
2023/01/02 09:19:16;;;;;;;5.30;1.90;;;;;;;;;;5061987;28;20051;-77
2023/01/02 09:21:41;;;;;;;4.72;2.08;;;;;;;;;;5057590;28;20027;-77
2023/01/02 09:24:07;;;;;;;3.63;2.10;;;;;;;;;;5067265;28;20369;-77
2023/01/02 09:26:33;;;;;;;5.63;2.17;;;;;;;;;;5066962;28;20393;-77
2023/01/02 09:28:59;;;;;;;4.70;2.60;;;;;;;;;;5066139;28;20082;-77
2023/01/02 09:31:24;;;;;;;4.85;2.60;;;;;;;;;;5066546;28;20115;-77
2023/01/02 09:33:52;;;;;;;5.07;2.53;;;;;;;;;;5057319;28;20032;-77
2023/01/02 09:36:18;;;;;;;5.82;2.90;;;;;;;;;;5089090;28;20021;-77
2023/01/02 09:38:52;;;;;;;4.40;2.72;;;;;;;;;;5060583;28;20086;-77
2023/01/02 09:41:20;;;;;;;3.28;1.95;;;;;;;;;;5075962;28;20025;-77
2023/01/02 09:43:55;;;;;;;5.35;2.28;;;;;;;;;;5056154;28;20429;-77
2023/01/02 09:46:30;;;;;;;4.72;2.00;;;;;;;;;;5065316;28;20028;-77
2023/01/02 09:48:58;;;;;;;3.80;2.10;;;;;;;;;;5066979;28;20119;-77
2023/01/02 09:51:24;;;;;;;3.75;2.00;;;;;;;;;;5067988;28;20381;-77
2023/01/02 09:53:50;;;;;;;4.80;1.98;;;;;;;;;;5070089;28;20102;-77
2023/01/02 09:56:37;;;;;;;4.18;2.00;;;;;;;;;;5066072;28;20476;-77
2023/01/02 09:59:02;;;;;;;3.38;1.83;;;;;;;;;;5065799;28;20059;-77
2023/01/02 10:02:02;;;;;;;3.90;2.10;;;;;;;;;;5069793;28;20051;-77
2023/01/02 10:04:52;;;;;;;3.40;1.90;;;;;;;;;;5062529;28;20017;-77
2023/01/02 10:07:47;;;;;;;4.07;2.00;;;;;;;;;;5066927;28;20105;-77
2023/01/02 10:10:25;;;;;;;3.40;2.08;;;;;;;;;;5068825;28;20047;-77
2023/01/02 10:13:12;;;;;;;6.05;2.05;;;;;;;;;;5067675;28;20103;-77
2023/01/02 10:15:44;;;;;;;3.97;1.88;;;;;;;;;;5065854;28;20029;-77
2023/01/02 10:18:21;;;;;;;3.03;1.63;;;;;;;;;;5064739;28;20029;-77
2023/01/02 10:20:56;;;;;;;4.22;1.70;;;;;;;;;;5070240;28;20056;-77
2023/01/02 10:23:54;;;;;;;3.88;1.75;;;;;;;;;;5066764;28;20095;-77
2023/01/02 10:26:24;;;;;;;4.28;1.77;;;;;;;;;;5065585;28;20131;-77
2023/01/02 10:28:53;;;;;;;4.38;1.75;;;;;;;;;;5068542;28;20497;-76
2023/01/02 10:31:28;;;;;;;3.05;1.90;;;;;;;;;;5070678;28;20024;-77
2023/01/02 10:33:57;;;;;;;5.25;2.13;;;;;;;;;;5066733;28;20464;-77
2023/01/02 10:36:25;;;;;;;5.88;2.28;;;;;;;;;;5067421;28;20020;-77
2023/01/02 10:38:51;;;;;;;5.55;1.92;;;;;;;;;;5061384;28;20028;-77
2023/01/02 10:41:17;;;;;;;6.15;2.17;;;;;;;;;;5070097;28;20033;-77
2023/01/02 10:43:47;;;;;;;5.07;2.10;;;;;;;;;;5080657;28;20073;-77
2023/01/02 10:46:12;;;;;;;3.47;1.98;;;;;;;;;;5067413;28;20028;-77
2023/01/02 10:48:38;;;;;;;4.35;2.10;;;;;;;;;;5074985;28;20119;-76
2023/01/02 10:51:10;;;;;;;3.70;1.80;;;;;;;;;;5071466;28;20032;-77
2023/01/02 10:53:36;;;;;;;4.55;1.70;;;;;;;;;;5063823;28;20266;-77
2023/01/02 10:56:13;;;;;;;3.63;1.45;;;;;;;;;;5071104;28;20025;-77
2023/01/02 10:58:44;;;;;;;5.60;1.70;;;;;;;;;;5067052;28;20338;-77
2023/01/02 11:01:13;;;;;;;3.03;1.52;;;;;;;;;;5068160;28;20548;-77
2023/01/02 11:03:38;;;;;;;7.53;1.90;;;;;;;;;;5068077;28;20058;-77
2023/01/02 11:06:16;;;;;;;5.28;1.60;;;;;;;;;;5069439;28;20025;-77
2023/01/02 11:08:41;;;;;;;3.38;1.40;;;;;;;;;;5063796;28;20477;-77
2023/01/02 11:11:14;;;;;;;3.72;1.85;;;;;;;;;;5071523;28;20024;-77
2023/01/02 11:13:47;;;;;;;;;;;;;;;;;;5068102;28;20036;-77
2023/01/02 11:16:15;;;;;;;4.47;2.00;;;;;;;;;;5067260;28;19912;-77
2023/01/02 11:18:54;;;;;;;6.28;3.13;;;;;;;;;;5059443;28;20028;-77
2023/01/02 11:21:27;;;;;;;6.63;2.80;;;;;;;;;;5068308;28;20102;-77
2023/01/02 11:24:03;;;;;;;5.05;1.73;;;;;;;;;;5066620;28;20124;-77
2023/01/02 11:26:31;;;;;;;5.13;1.80;;;;;;;;;;5065337;28;20793;-77
2023/01/02 11:29:06;;;;;;;7.57;2.47;;;;;;;;;;5068227;28;20549;-77
2023/01/02 11:31:32;;;;;;;5.80;2.60;;;;;;;;;;5069587;28;20039;-77
2023/01/02 11:34:08;;;;;;;8.23;2.70;;;;;;;;;;5068813;28;20380;-77
2023/01/02 11:36:34;;;;;;;6.50;2.35;;;;;;;;;;5069958;28;20032;-77
2023/01/02 11:39:20;;;;;;;4.82;2.40;;;;;;;;;;5070912;28;20029;-77
2023/01/02 11:44:47;;;;;;;8.05;2.83;;;;;;;;;;5070127;28;20089;-77
2023/01/02 11:47:14;;;;;;;6.03;2.33;;;;;;;;;;5069749;28;20534;-77
2023/01/02 11:49:47;;;;;;;6.35;2.60;;;;;;;;;;5065800;28;20480;-77
2023/01/02 11:52:17;;;;;;;5.57;2.20;;;;;;;;;;5069786;28;20028;-77
2023/01/02 11:54:55;;;;;;;7.20;2.45;;;;;;;;;;5070235;28;20400;-77
2023/01/02 11:57:33;;;;;;;4.78;2.40;;;;;;;;;;5071190;28;20495;-77
2023/01/02 12:00:01;;;;;;;5.30;2.60;;;;;;;;;;5065037;28;20031;-77
2023/01/02 12:02:51;;;;;;;5.32;2.90;;;;;;;;;;5064941;28;20048;-77
2023/01/02 12:05:31;;;;;;;6.32;3.40;;;;;;;;;;5063712;28;20044;-77
2023/01/02 12:08:05;;;;;;;5.97;3.65;;;;;;;;;;5070025;28;20093;-77
2023/01/02 12:10:52;;;;;;;5.97;3.50;;;;;;;;;;5068178;28;20059;-77
2023/01/02 12:13:26;;;;;;;7.25;3.55;;;;;;;;;;5066383;28;20027;-77
2023/01/02 12:16:11;;;;;;;8.00;3.70;;;;;;;;;;5066855;28;20034;-77
2023/01/02 12:18:37;;;;;;;6.50;3.67;;;;;;;;;;5070146;28;20038;-77
2023/01/02 12:21:25;;;;;;;7.03;4.47;;;;;;;;;;5069830;28;20036;-77
2023/01/02 12:24:24;;;;;;;9.18;4.45;;;;;;;;;;5064895;28;20025;-77
2023/01/02 12:27:03;;;;;;;8.30;4.47;;;;;;;;;;5063695;28;20031;-77
2023/01/02 12:29:46;;;;;;;7.97;4.80;;;;;;;;;;5067219;28;20040;-77
2023/01/02 12:32:33;;;;;;;9.95;5.55;;;;;;;;;;5064438;28;20610;-77
2023/01/02 12:35:16;;;;;;;8.05;5.05;;;;;;;;;;5070091;28;20031;-78
2023/01/02 12:37:54;;;;;;;7.47;4.85;;;;;;;;;;5066890;28;20036;-77
2023/01/02 12:40:45;;;;;;;8.88;5.25;;;;;;;;;;5063160;28;20127;-77
2023/01/02 12:43:43;;;;;;;8.38;5.28;;;;;;;;;;5063709;28;20504;-77
2023/01/02 12:46:41;;;;;;;9.25;5.85;;;;;;;;;;5068439;28;20024;-77
2023/01/02 12:49:40;;;;;;;9.90;4.95;;;;;;;;;;5064622;28;20032;-77
2023/01/02 12:52:20;;;;;;;7.93;4.60;;;;;;;;;;5064319;28;20100;-77
2023/01/02 12:55:02;;;;;;;9.55;5.15;;;;;;;;;;5063468;28;20110;-77
2023/01/02 12:57:51;;;;;;;8.50;5.10;;;;;;;;;;5070488;28;20025;-77
2023/01/02 13:00:38;;;;;;;9.07;5.38;;;;;;;;;;5064581;28;20055;-77
2023/01/02 13:03:41;;;;;;;8.75;5.13;;;;;;;;;;5071134;28;20480;-77
2023/01/02 13:06:28;;;;;;;8.70;5.70;;;;;;;;;;5065494;28;20032;-77
2023/01/02 13:09:37;;;;;;;12.82;5.72;;;;;;;;;;5063363;28;20024;-77
2023/01/02 13:12:09;;;;;;;10.25;5.50;;;;;;;;;;5062104;28;20433;-77
2023/01/02 13:14:45;;;;;;;10.63;5.88;;;;;;;;;;5067970;28;20059;-77
2023/01/02 13:17:16;;;;;;;11.32;5.40;;;;;;;;;;5065134;28;20495;-77
2023/01/02 13:19:49;;;;;;;7.68;4.72;;;;;;;;;;5039162;28;20056;-77
2023/01/02 13:22:26;;;;;;;11.27;4.50;;;;;;;;;;5054642;28;20033;-77
2023/01/02 13:24:54;;;;;;;9.30;4.82;;;;;;;;;;5057097;28;20723;-77
2023/01/02 13:27:20;;;;;;;9.35;4.55;;;;;;;;;;5058126;28;20043;-77
2023/01/02 13:29:45;;;;;;;8.93;5.00;;;;;;;;;;5050201;28;20367;-77
2023/01/02 13:32:12;;;;;;;9.18;4.50;;;;;;;;;;5054000;28;20073;-77
2023/01/02 13:34:49;;;;;;;7.97;4.15;;;;;;;;;;5059101;28;20554;-77
2023/01/02 13:37:18;;;;;;;6.25;3.90;;;;;;;;;;5062455;28;20461;-77
2023/01/02 13:39:47;;;;;;;7.65;3.72;;;;;;;;;;5073926;28;20056;-77
2023/01/02 13:45:24;;;;;;;9.77;3.70;;;;;;;;;;5058901;28;20089;-77
2023/01/02 13:47:54;;;;;;;9.90;3.85;;;;;;;;;;5056366;28;20043;-77
2023/01/02 13:50:31;;;;;;;7.05;3.70;;;;;;;;;;5061543;28;20458;-77
2023/01/02 13:53:08;;;;;;;7.85;3.85;;;;;;;;;;5061209;28;20032;-76
2023/01/02 13:55:40;;;;;;;7.97;3.70;;;;;;;;;;5058726;28;20071;-77
2023/01/02 13:58:16;;;;;;;6.82;3.55;;;;;;;;;;5060111;28;20025;-77
2023/01/02 14:00:50;;;;;;;7.40;4.03;;;;;;;;;;5062951;28;20532;-77
2023/01/02 14:03:26;;;;;;;8.25;3.83;;;;;;;;;;5054209;28;20231;-77
2023/01/02 14:06:27;;;;;;;8.95;4.13;;;;;;;;;;5059259;28;20051;-77
2023/01/02 14:09:04;;;;;;;8.10;4.18;;;;;;;;;;5038856;28;20036;-77
2023/01/02 14:11:41;;;;;;;7.15;3.63;;;;;;;;;;5055865;28;20492;-77
2023/01/02 14:14:21;;;;;;;10.45;4.15;;;;;;;;;;5054118;28;20095;-77
2023/01/02 14:17:28;;;;;;;6.38;3.78;;;;;;;;;;5060200;28;20029;-77
2023/01/02 14:20:15;;;;;;;11.48;4.78;;;;;;;;;;5057148;28;20032;-77
2023/01/02 14:22:51;;;;;;;8.05;4.60;;;;;;;;;;5051243;28;20036;-77
2023/01/02 14:25:17;;;;;;;9.63;5.18;;;;;;;;;;5060895;28;20040;-77
2023/01/02 14:28:20;;;;;;;8.45;4.80;;;;;;;;;;5063748;28;20025;-77
2023/01/02 14:30:46;;;;;;;7.72;4.63;;;;;;;;;;5055808;28;20379;-77
2023/01/02 14:33:20;;;;;;;9.32;5.20;;;;;;;;;;5057969;28;20059;-77
2023/01/02 14:35:57;;;;;;;9.85;5.65;;;;;;;;;;5060210;28;20029;-77
2023/01/02 14:38:29;;;;;;;7.88;5.30;;;;;;;;;;5064161;28;20111;-77
2023/01/02 14:43:28;;;;;;;8.90;5.53;;;;;;;;;;5059470;28;20020;-77
2023/01/02 14:43:41;;;;;;;9.35;5.72;;;;;;;;;;5056562;28;20040;-77
2023/01/02 14:46:16;;;;;;;10.32;5.47;;;;;;;;;;5063495;28;20043;-77
2023/01/02 14:48:53;;;;;;;8.52;5.38;;;;;;;;;;5060916;28;20036;-76
2023/01/02 14:51:28;;;;;;;8.32;5.00;;;;;;;;;;5059140;28;20078;-77
2023/01/02 14:53:57;;;;;;;8.57;5.70;;;;;;;;;;5059684;28;20313;-77
2023/01/02 14:56:31;;;;;;;11.65;6.28;;;;;;;;;;5059730;28;20033;-77
2023/01/02 14:58:58;;;;;;;10.65;5.95;;;;;;;;;;5053901;28;20033;-77
2023/01/02 15:01:29;;;;;;;10.57;6.38;;;;;;;;;;5060662;28;20043;-76
2023/01/02 15:04:21;;;;;;;10.70;6.20;;;;;;;;;;5070980;28;20038;-77
2023/01/02 15:06:55;;;;;;;11.05;7.13;;;;;;;;;;5069433;28;20539;-76
2023/01/02 15:09:26;;;;;;;13.77;6.72;;;;;;;;;;5058293;28;20492;-77
2023/01/02 15:14:51;;;;;;;14.75;5.80;;;;;;;;;;5057726;28;20391;-77
2023/01/02 15:17:21;;;;;;;9.15;5.15;;;;;;;;;;5061249;28;20037;-77
2023/01/02 15:19:47;;;;;;;9.65;5.28;;;;;;;;;;5062398;28;20043;-77